createdAt,value
2018-09-29T00:00:29.449Z,8.90
2018-09-29T00:02:58.794Z,7.80
2018-09-29T00:05:29.152Z,8.90
2018-09-29T00:07:58.676Z,8.90
2018-09-29T00:10:28.681Z,8.90
2018-09-29T00:12:57.964Z,8.80
2018-09-29T00:15:27.273Z,8.60
2018-09-29T00:17:57.169Z,8.70
2018-09-29T00:20:27.196Z,8.70
2018-09-29T00:22:57.204Z,8.60
2018-09-29T00:25:27.384Z,8.70
2018-09-29T00:27:56.979Z,8.60
2018-09-29T00:30:27.395Z,8.60
2018-09-29T00:32:57.303Z,8.50
2018-09-29T00:35:26.810Z,8.40
2018-09-29T00:37:56.193Z,8.40
2018-09-29T00:40:26.396Z,8.40
2018-09-29T00:42:55.716Z,8.50
2018-09-29T00:45:26.021Z,8.60
2018-09-29T00:47:55.217Z,8.60
2018-09-29T00:50:25.401Z,8.60
2018-09-29T00:52:54.957Z,8.70
2018-09-29T00:55:24.256Z,8.60
2018-09-29T00:57:54.121Z,8.50
2018-09-29T01:00:23.709Z,8.40
2018-09-29T01:02:52.947Z,8.40
2018-09-29T01:05:22.076Z,8.30
2018-09-29T01:07:51.296Z,8.40
2018-09-29T01:10:20.555Z,8.40
2018-09-29T01:12:49.823Z,8.50
2018-09-29T01:15:19.568Z,8.50
2018-09-29T01:17:49.173Z,8.40
2018-09-29T01:20:18.352Z,8.30
2018-09-29T01:22:47.770Z,8.10
2018-09-29T01:25:17.105Z,8.00
2018-09-29T01:27:47.128Z,8.00
2018-09-29T01:30:16.284Z,8.10
2018-09-29T01:32:45.661Z,8.10
2018-09-29T01:35:15.348Z,8.00
2018-09-29T01:37:45.708Z,8.00
2018-09-29T01:40:15.000Z,8.00
2018-09-29T01:42:44.161Z,8.00
2018-09-29T01:45:13.845Z,8.00
2018-09-29T01:47:43.505Z,8.20
2018-09-29T01:50:12.891Z,8.10
2018-09-29T01:52:42.257Z,8.20
2018-09-29T01:55:11.962Z,8.20
2018-09-29T01:57:41.184Z,8.10
2018-09-29T02:00:10.925Z,8.00
2018-09-29T02:02:40.314Z,8.00
2018-09-29T02:05:09.538Z,8.10
2018-09-29T02:07:38.733Z,8.10
2018-09-29T02:10:07.982Z,8.10
2018-09-29T02:12:37.176Z,8.10
2018-09-29T02:15:06.769Z,8.10
2018-09-29T02:17:36.530Z,8.00
2018-09-29T02:20:05.831Z,7.90
2018-09-29T02:22:35.005Z,7.90
2018-09-29T02:25:04.605Z,7.80
2018-09-29T02:27:34.437Z,7.70
2018-09-29T02:30:04.015Z,7.50
2018-09-29T02:32:33.254Z,7.40
2018-09-29T02:35:02.835Z,7.30
2018-09-29T02:37:32.941Z,7.10
2018-09-29T02:40:03.165Z,7.10
2018-09-29T02:42:32.725Z,7.20
2018-09-29T02:45:01.936Z,6.70
2018-09-29T02:48:33.874Z,7.50
2018-09-29T02:51:03.386Z,7.60
2018-09-29T02:53:33.057Z,7.70
2018-09-29T02:56:02.270Z,7.60
2018-09-29T02:58:31.769Z,7.60
2018-09-29T03:01:02.135Z,9.00
2018-09-29T03:03:31.875Z,7.50
2018-09-29T03:06:01.280Z,7.60
2018-09-29T03:08:30.878Z,7.60
2018-09-29T03:11:00.228Z,7.60
2018-09-29T03:13:29.382Z,7.60
2018-09-29T03:15:58.919Z,7.60
2018-09-29T03:18:28.411Z,7.60
2018-09-29T03:20:57.700Z,8.20
2018-09-29T03:23:27.030Z,7.60
2018-09-29T03:25:56.479Z,7.70
2018-09-29T03:28:26.119Z,7.50
2018-09-29T03:30:55.387Z,7.40
2018-09-29T03:33:27.139Z,7.50
2018-09-29T03:35:57.310Z,7.50
2018-09-29T03:38:26.767Z,7.50
2018-09-29T03:40:57.796Z,7.40
2018-09-29T03:43:27.206Z,7.40
2018-09-29T03:45:56.396Z,7.50
2018-09-29T03:48:25.719Z,7.30
2018-09-29T03:50:55.266Z,7.20
2018-09-29T03:53:24.540Z,7.20
2018-09-29T03:55:53.951Z,6.00
2018-09-29T03:58:23.847Z,7.00
2018-09-29T04:00:54.450Z,5.10
2018-09-29T04:03:24.017Z,7.10
2018-09-29T04:05:53.451Z,7.20
2018-09-29T04:08:23.151Z,7.20
2018-09-29T04:10:52.481Z,7.10
2018-09-29T04:13:21.662Z,7.10
2018-09-29T04:15:50.895Z,7.10
2018-09-29T04:18:20.671Z,7.00
2018-09-29T04:20:51.903Z,5.60
2018-09-29T04:23:21.244Z,6.90
2018-09-29T04:25:50.365Z,7.00
2018-09-29T04:28:22.082Z,7.20
2018-09-29T04:30:51.384Z,7.20
2018-09-29T04:33:21.031Z,6.90
2018-09-29T04:35:50.658Z,6.90
2018-09-29T04:38:19.846Z,6.80
2018-09-29T04:40:49.502Z,6.80
2018-09-29T04:43:20.415Z,6.90
2018-09-29T04:45:49.496Z,8.20
2018-09-29T04:48:19.408Z,7.00
2018-09-29T04:50:48.830Z,7.00
2018-09-29T04:53:18.086Z,7.00
2018-09-29T04:55:48.318Z,7.10
2018-09-29T04:58:19.077Z,6.70
2018-09-29T05:00:48.856Z,7.00
2018-09-29T05:03:18.500Z,5.20
2018-09-29T05:05:47.833Z,7.00
2018-09-29T05:09:46.341Z,6.90
2018-09-29T05:12:15.812Z,6.80
2018-09-29T05:14:45.026Z,6.80
2018-09-29T05:17:14.161Z,6.80
2018-09-29T05:19:47.580Z,6.80
2018-09-29T05:22:16.750Z,7.80
2018-09-29T05:24:46.681Z,6.90
2018-09-29T05:27:16.178Z,6.90
2018-09-29T05:29:46.102Z,6.90
2018-09-29T05:32:17.069Z,6.70
2018-09-29T05:34:46.423Z,6.80
2018-09-29T05:37:16.170Z,6.80
2018-09-29T05:39:45.343Z,6.90
2018-09-29T05:42:14.812Z,6.90
2018-09-29T05:44:44.262Z,6.30
2018-09-29T05:47:14.282Z,6.90
2018-09-29T05:49:44.149Z,6.90
2018-09-29T05:52:13.733Z,6.90
2018-09-29T05:54:43.175Z,7.00
2018-09-29T05:57:12.525Z,7.00
2018-09-29T05:59:41.765Z,7.00
2018-09-29T06:02:11.660Z,7.00
2018-09-29T06:04:40.991Z,7.00
2018-09-29T06:07:10.366Z,7.00
2018-09-29T06:09:40.086Z,7.00
2018-09-29T06:12:09.414Z,6.60
2018-09-29T06:14:39.173Z,6.70
2018-09-29T06:17:08.412Z,7.00
2018-09-29T06:19:37.620Z,7.00
2018-09-29T06:22:07.750Z,7.10
2018-09-29T06:24:37.371Z,7.30
2018-09-29T06:27:06.707Z,7.20
2018-09-29T06:29:36.280Z,7.20
2018-09-29T06:32:06.907Z,7.30
2018-09-29T06:34:36.653Z,7.30
2018-09-29T06:37:05.979Z,6.40
2018-09-29T06:39:36.078Z,7.10
2018-09-29T06:42:05.828Z,7.00
2018-09-29T06:44:36.210Z,7.10
2018-09-29T06:47:06.710Z,7.30
2018-09-29T06:49:36.210Z,7.40
2018-09-29T06:52:06.652Z,7.50
2018-09-29T06:54:36.070Z,9.30
2018-09-29T06:57:07.145Z,7.50
2018-09-29T06:59:36.758Z,7.70
2018-09-29T07:02:05.958Z,7.70
2018-09-29T07:04:35.151Z,7.60
2018-09-29T07:07:05.446Z,7.50
2018-09-29T07:09:35.833Z,7.40
2018-09-29T07:12:05.180Z,7.50
2018-09-29T07:14:34.400Z,7.70
2018-09-29T07:17:05.770Z,7.80
2018-09-29T07:19:35.875Z,7.70
2018-09-29T07:22:05.938Z,7.80
2018-09-29T07:24:35.341Z,8.00
2018-09-29T07:27:04.475Z,7.80
2018-09-29T07:29:33.770Z,7.50
2018-09-29T07:32:04.604Z,7.40
2018-09-29T07:34:33.841Z,7.50
2018-09-29T07:37:03.304Z,7.70
2018-09-29T07:39:32.727Z,7.80
2018-09-29T07:42:03.394Z,7.70
2018-09-29T07:44:39.750Z,7.70
2018-09-29T07:47:09.032Z,6.00
2018-09-29T07:49:41.207Z,7.90
2018-09-29T07:52:10.844Z,7.90
2018-09-29T07:54:41.314Z,6.80
2018-09-29T07:57:10.783Z,8.00
2018-09-29T07:59:40.498Z,9.30
2018-09-29T08:02:10.662Z,8.10
2018-09-29T08:04:39.883Z,8.40
2018-09-29T08:07:12.776Z,8.70
2018-09-29T08:09:42.246Z,8.00
2018-09-29T08:12:12.253Z,9.10
2018-09-29T08:14:44.744Z,9.20
2018-09-29T08:17:14.199Z,8.90
2018-09-29T08:19:43.456Z,9.00
2018-09-29T08:22:13.265Z,9.00
2018-09-29T08:24:43.165Z,8.80
2018-09-29T08:27:13.141Z,8.60
2018-09-29T08:29:43.178Z,8.70
2018-09-29T08:32:15.327Z,9.00
2018-09-29T08:34:48.302Z,9.40
2018-09-29T08:37:19.021Z,9.70
2018-09-29T08:39:49.077Z,7.60
2018-09-29T08:42:18.674Z,9.90
2018-09-29T08:44:48.456Z,9.80
2018-09-29T08:47:18.766Z,10.00
2018-09-29T08:49:48.300Z,10.30
2018-09-29T08:52:19.666Z,10.30
2018-09-29T08:54:49.402Z,10.20
2018-09-29T08:57:20.184Z,10.20
2018-09-29T08:59:49.749Z,10.50
2018-09-29T09:02:21.005Z,8.60
2018-09-29T09:04:52.204Z,10.40
2018-09-29T09:07:22.118Z,10.50
2018-09-29T09:09:52.987Z,10.40
2018-09-29T09:12:22.725Z,10.50
2018-09-29T09:15:00.711Z,10.60
2018-09-29T09:17:30.527Z,10.70
2018-09-29T09:20:07.308Z,10.70
2018-09-29T09:22:40.057Z,9.70
2018-09-29T09:25:11.369Z,10.60
2018-09-29T09:27:43.185Z,9.30
2018-09-29T09:30:13.338Z,10.30
2018-09-29T09:32:44.765Z,11.20
2018-09-29T09:35:14.206Z,10.60
2018-09-29T09:37:44.592Z,10.80
2018-09-29T09:40:17.360Z,12.80
2018-09-29T09:42:47.021Z,11.10
2018-09-29T09:45:21.348Z,11.10
2018-09-29T09:47:52.425Z,11.00
2018-09-29T09:50:22.441Z,10.90
2018-09-29T09:52:54.972Z,10.90
2018-09-29T09:55:24.226Z,10.00
2018-09-29T09:57:53.653Z,11.20
2018-09-29T10:00:27.478Z,11.30
2018-09-29T10:03:02.676Z,11.40
2018-09-29T10:05:33.219Z,11.40
2018-09-29T10:08:03.107Z,11.50
2018-09-29T10:10:34.160Z,11.60
2018-09-29T10:13:04.266Z,11.60
2018-09-29T10:15:35.376Z,11.80
2018-09-29T10:18:05.628Z,9.90
2018-09-29T10:20:36.538Z,11.80
2018-09-29T10:23:06.641Z,11.90
2018-09-29T10:25:36.086Z,12.00
2018-09-29T10:28:05.650Z,12.10
2018-09-29T10:30:38.961Z,13.20
2018-09-29T10:33:09.316Z,11.40
2018-09-29T10:35:39.730Z,12.10
2018-09-29T10:38:10.055Z,12.00
2018-09-29T10:40:40.760Z,12.30
2018-09-29T10:43:11.000Z,12.30
2018-09-29T10:45:42.666Z,12.50
2018-09-29T10:48:12.210Z,14.10
2018-09-29T10:50:42.779Z,12.40
2018-09-29T10:53:13.743Z,11.90
2018-09-29T10:55:45.240Z,12.80
2018-09-29T10:58:16.222Z,12.60
2018-09-29T11:00:47.817Z,13.00
2018-09-29T11:03:18.440Z,13.20
2018-09-29T11:05:52.310Z,13.50
2018-09-29T11:08:21.610Z,13.10
2018-09-29T11:10:51.349Z,13.10
2018-09-29T11:13:22.120Z,13.20
2018-09-29T11:15:52.317Z,13.10
2018-09-29T11:18:21.948Z,13.10
2018-09-29T11:20:51.797Z,12.70
2018-09-29T11:23:21.178Z,12.60
2018-09-29T11:25:50.948Z,12.80
2018-09-29T11:28:21.554Z,13.20
2018-09-29T11:30:51.649Z,13.40
2018-09-29T11:33:21.232Z,13.30
2018-09-29T11:35:52.187Z,13.10
2018-09-29T11:38:22.776Z,13.40
2018-09-29T11:40:54.583Z,13.60
2018-09-29T11:43:25.137Z,13.90
2018-09-29T11:45:58.103Z,13.90
2018-09-29T11:48:33.823Z,13.80
2018-09-29T11:51:04.135Z,13.80
2018-09-29T11:53:35.281Z,13.70
2018-09-29T11:56:07.306Z,14.30
2018-09-29T11:58:37.924Z,14.20
2018-09-29T12:01:12.224Z,14.30
2018-09-29T12:03:42.334Z,14.50
2018-09-29T12:06:13.113Z,14.70
2018-09-29T12:08:43.780Z,14.70
2018-09-29T12:11:14.802Z,14.70
2018-09-29T12:15:15.105Z,14.50
2018-09-29T12:17:45.185Z,14.20
2018-09-29T12:20:15.147Z,14.00
2018-09-29T12:22:45.004Z,14.00
2018-09-29T12:25:18.676Z,14.20
2018-09-29T12:27:48.359Z,14.00
2018-09-29T12:30:20.611Z,14.10
2018-09-29T12:32:51.029Z,12.60
2018-09-29T12:35:21.076Z,14.50
2018-09-29T12:37:50.575Z,14.50
2018-09-29T12:40:20.671Z,14.40
2018-09-29T12:42:50.617Z,14.60
2018-09-29T12:45:20.153Z,14.60
2018-09-29T12:47:50.487Z,14.50
2018-09-29T12:50:21.273Z,14.30
2018-09-29T12:52:52.326Z,14.30
2018-09-29T12:55:25.320Z,14.50
2018-09-29T13:00:40.797Z,14.70
2018-09-29T13:03:13.077Z,16.10
2018-09-29T13:05:44.819Z,14.20
2018-09-29T13:08:23.372Z,13.90
2018-09-29T13:10:54.563Z,14.20
2018-09-29T13:13:25.459Z,14.50
2018-09-29T13:15:59.384Z,14.60
2018-09-29T13:18:30.113Z,14.60
2018-09-29T13:21:01.348Z,14.70
2018-09-29T13:23:31.095Z,14.50
2018-09-29T13:26:01.323Z,14.30
2018-09-29T13:28:32.344Z,14.40
2018-09-29T13:31:01.847Z,14.60
2018-09-29T13:33:33.185Z,14.70
2018-09-29T13:36:04.208Z,14.80
2018-09-29T13:38:37.157Z,14.80
2018-09-29T13:41:09.804Z,14.90
2018-09-29T13:43:43.736Z,14.50
2018-09-29T13:46:15.111Z,14.70
2018-09-29T13:48:50.932Z,14.90
2018-09-29T13:51:24.948Z,14.90
2018-09-29T13:53:54.657Z,15.00
2018-09-29T13:56:24.967Z,15.00
2018-09-29T13:58:55.859Z,14.90
2018-09-29T14:01:26.467Z,15.00
2018-09-29T14:03:56.737Z,16.30
2018-09-29T14:06:26.538Z,15.00
2018-09-29T14:08:56.570Z,15.00
2018-09-29T14:11:32.641Z,15.10
2018-09-29T14:14:01.951Z,15.10
2018-09-29T14:16:34.655Z,15.30
2018-09-29T14:19:04.698Z,15.10
2018-09-29T14:21:34.760Z,15.00
2018-09-29T14:24:08.091Z,15.10
2018-09-29T14:26:40.703Z,15.40
2018-09-29T14:29:13.401Z,16.70
2018-09-29T14:31:48.818Z,15.50
2018-09-29T14:34:20.523Z,15.40
2018-09-29T14:36:54.016Z,15.40
2018-09-29T14:39:25.980Z,15.40
2018-09-29T14:41:55.879Z,15.40
2018-09-29T14:44:26.003Z,15.40
2018-09-29T14:46:56.397Z,15.20
2018-09-29T14:49:26.825Z,15.20
2018-09-29T14:51:56.684Z,15.20
2018-09-29T14:54:27.741Z,15.30
2018-09-29T14:56:59.091Z,15.30
2018-09-29T14:59:29.141Z,16.00
2018-09-29T15:01:59.652Z,15.30
2018-09-29T15:04:32.080Z,15.30
2018-09-29T15:07:06.257Z,15.50
2018-09-29T15:09:37.237Z,15.30
2018-09-29T15:12:07.565Z,15.30
2018-09-29T15:14:39.469Z,15.40
2018-09-29T15:17:09.009Z,15.50
2018-09-29T15:19:38.440Z,15.50
2018-09-29T15:22:10.375Z,15.50
2018-09-29T15:24:41.610Z,16.30
2018-09-29T15:27:11.759Z,15.50
2018-09-29T15:29:41.881Z,15.50
2018-09-29T15:32:11.372Z,15.50
2018-09-29T15:34:45.727Z,15.60
2018-09-29T15:37:15.104Z,15.60
2018-09-29T15:39:45.172Z,15.50
2018-09-29T15:42:15.215Z,15.50
2018-09-29T15:44:44.662Z,15.60
2018-09-29T15:47:17.031Z,15.40
2018-09-29T15:49:46.564Z,15.40
2018-09-29T15:52:17.661Z,15.00
2018-09-29T15:54:49.231Z,14.70
2018-09-29T15:57:25.261Z,16.30
2018-09-29T15:59:57.184Z,14.70
2018-09-29T16:02:28.130Z,14.80
2018-09-29T16:04:59.166Z,14.80
2018-09-29T16:07:31.186Z,14.80
2018-09-29T16:10:02.032Z,14.70
2018-09-29T16:12:31.670Z,14.70
2018-09-29T16:15:01.558Z,14.50
2018-09-29T16:17:31.021Z,14.50
2018-09-29T16:20:04.454Z,14.60
2018-09-29T16:22:37.202Z,14.50
2018-09-29T16:25:08.309Z,14.50
2018-09-29T16:27:41.350Z,14.50
2018-09-29T16:30:11.253Z,14.70
2018-09-29T16:32:43.641Z,14.70
2018-09-29T16:35:15.048Z,14.60
2018-09-29T16:37:46.372Z,14.60
2018-09-29T16:40:15.929Z,14.70
2018-09-29T16:42:47.269Z,14.70
2018-09-29T16:45:17.138Z,14.70
2018-09-29T16:47:47.740Z,14.80
2018-09-29T16:50:18.061Z,14.80
2018-09-29T16:52:47.345Z,14.70
2018-09-29T16:55:16.541Z,14.70
2018-09-29T16:57:46.684Z,13.50
2018-09-29T17:00:16.115Z,14.50
2018-09-29T17:02:46.891Z,14.40
2018-09-29T17:05:17.250Z,14.30
2018-09-29T17:07:46.618Z,14.30
2018-09-29T17:10:17.668Z,14.20
2018-09-29T17:12:50.498Z,14.00
2018-09-29T17:15:20.806Z,13.90
2018-09-29T17:17:50.766Z,13.60
2018-09-29T17:20:21.034Z,13.70
2018-09-29T17:22:50.310Z,13.60
2018-09-29T17:25:19.525Z,13.60
2018-09-29T17:27:49.738Z,13.50
2018-09-29T17:30:19.165Z,13.40
2018-09-29T17:32:48.854Z,13.40
2018-09-29T17:35:19.675Z,13.30
2018-09-29T17:37:53.656Z,13.30
2018-09-29T17:40:23.777Z,13.20
2018-09-29T17:42:53.992Z,13.20
2018-09-29T17:45:24.756Z,13.00
2018-09-29T17:47:55.694Z,12.90
2018-09-29T17:50:27.295Z,12.90
2018-09-29T17:52:58.690Z,12.90
2018-09-29T17:55:30.157Z,12.90
2018-09-29T17:57:59.824Z,12.80
2018-09-29T18:00:29.868Z,12.70
2018-09-29T18:02:59.570Z,12.60
2018-09-29T18:05:30.452Z,12.60
2018-09-29T18:07:59.802Z,12.60
2018-09-29T18:10:30.765Z,12.60
2018-09-29T18:13:01.697Z,12.50
2018-09-29T18:15:32.452Z,12.40
2018-09-29T18:18:04.111Z,12.50
2018-09-29T18:20:35.209Z,12.30
2018-09-29T18:23:04.762Z,12.20
2018-09-29T18:25:37.554Z,12.00
2018-09-29T18:28:07.789Z,12.10
2018-09-29T18:30:38.341Z,12.10
2018-09-29T18:33:08.741Z,13.00
2018-09-29T18:35:38.326Z,12.00
2018-09-29T18:38:08.142Z,12.00
2018-09-29T18:40:38.788Z,14.00
2018-09-29T18:43:09.730Z,11.90
2018-09-29T18:45:40.613Z,11.80
2018-09-29T18:48:11.454Z,11.90
2018-09-29T18:50:41.805Z,12.20
2018-09-29T18:53:11.279Z,11.50
2018-09-29T18:55:43.185Z,11.50
2018-09-29T18:58:14.540Z,11.70
2018-09-29T19:00:44.452Z,11.60
2018-09-29T19:03:14.756Z,12.20
2018-09-29T19:05:45.733Z,10.50
2018-09-29T19:08:31.422Z,11.40
2018-09-29T19:11:03.979Z,11.50
2018-09-29T19:13:38.878Z,11.50
2018-09-29T19:16:09.325Z,11.00
2018-09-29T19:18:39.995Z,11.50
2018-09-29T19:21:11.584Z,11.50
2018-09-29T19:23:41.445Z,11.40
2018-09-29T19:26:12.216Z,11.40
2018-09-29T19:28:42.696Z,11.30
2018-09-29T19:31:13.178Z,11.30
2018-09-29T19:33:43.208Z,11.20
2018-09-29T19:36:15.443Z,12.80
2018-09-29T19:38:46.205Z,11.20
2018-09-29T19:41:16.365Z,11.20
2018-09-29T19:43:46.638Z,11.20
2018-09-29T19:46:22.109Z,11.10
2018-09-29T19:48:52.750Z,11.00
2018-09-29T19:51:23.358Z,10.90
2018-09-29T19:53:53.556Z,11.00
2018-09-29T19:56:30.494Z,10.90
2018-09-29T19:59:02.451Z,10.90
2018-09-29T20:01:36.187Z,10.80
2018-09-29T20:04:06.861Z,10.70
2018-09-29T20:09:17.337Z,10.50
2018-09-29T20:11:50.781Z,10.50
2018-09-29T20:14:20.193Z,10.50
2018-09-29T20:16:50.407Z,10.50
2018-09-29T20:19:19.973Z,10.50
2018-09-29T20:21:49.441Z,10.50
2018-09-29T20:24:21.222Z,10.30
2018-09-29T20:26:51.143Z,10.40
2018-09-29T20:29:21.385Z,10.30
2018-09-29T20:31:52.382Z,10.30
2018-09-29T20:34:25.201Z,10.20
2018-09-29T20:36:57.182Z,10.10
2018-09-29T20:39:28.254Z,10.00
2018-09-29T20:42:01.512Z,10.00
2018-09-29T20:44:32.555Z,9.90
2018-09-29T20:49:37.730Z,9.90
2018-09-29T20:52:07.317Z,9.90
2018-09-29T20:54:39.420Z,9.90
2018-09-29T20:57:10.103Z,9.90
2018-09-29T20:59:39.339Z,9.90
2018-09-29T21:02:08.598Z,9.80
2018-09-29T21:04:38.833Z,9.80
2018-09-29T21:07:07.994Z,9.80
2018-09-29T21:09:40.353Z,9.80
2018-09-29T21:12:10.109Z,9.80
2018-09-29T21:14:39.192Z,9.70
2018-09-29T21:17:08.363Z,10.40
2018-09-29T21:19:38.773Z,9.70
2018-09-29T21:22:09.330Z,9.60
2018-09-29T21:24:38.462Z,9.60
2018-09-29T21:27:08.177Z,9.60
2018-09-29T21:29:37.709Z,9.60
2018-09-29T21:32:07.032Z,9.40
2018-09-29T21:34:37.172Z,9.30
2018-09-29T21:37:06.387Z,9.30
2018-09-29T21:39:36.725Z,9.30
2018-09-29T21:42:07.198Z,9.30
2018-09-29T21:44:36.401Z,9.30
2018-09-29T21:47:06.226Z,8.80
2018-09-29T21:49:35.477Z,9.30
2018-09-29T21:52:04.797Z,9.30
2018-09-29T21:54:34.083Z,9.30
2018-09-29T21:57:03.755Z,9.30
2018-09-29T21:59:33.726Z,9.30
2018-09-29T22:02:02.910Z,9.20
2018-09-29T22:04:32.465Z,9.30
2018-09-29T22:07:03.870Z,9.20
2018-09-29T22:09:34.557Z,9.30
2018-09-29T22:12:03.741Z,9.20
2018-09-29T22:14:34.221Z,10.80
2018-09-29T22:17:06.608Z,9.10
2018-09-29T22:19:35.735Z,9.10
2018-09-29T22:22:05.300Z,9.10
2018-09-29T22:24:35.338Z,9.10
2018-09-29T22:27:04.553Z,9.00
2018-09-29T22:29:34.197Z,9.00
2018-09-29T22:32:03.607Z,8.90
2018-09-29T22:34:33.417Z,8.80
2018-09-29T22:37:03.720Z,8.80
2018-09-29T22:39:33.240Z,8.70
2018-09-29T22:42:02.801Z,8.70
2018-09-29T22:44:31.978Z,8.70
2018-09-29T22:47:01.305Z,8.70
2018-09-29T22:49:31.846Z,8.50
2018-09-29T22:52:06.452Z,8.60
2018-09-29T22:54:37.050Z,8.50
2018-09-29T22:57:06.188Z,8.50
2018-09-29T22:59:36.638Z,8.50
2018-09-29T23:02:06.022Z,7.60
2018-09-29T23:04:35.500Z,8.40
2018-09-29T23:07:05.658Z,8.30
2018-09-29T23:09:35.172Z,8.30
2018-09-29T23:12:04.345Z,8.40
2018-09-29T23:14:33.846Z,8.40
2018-09-29T23:17:03.221Z,8.40
2018-09-29T23:19:34.185Z,8.40
2018-09-29T23:22:03.778Z,8.40
2018-09-29T23:24:33.073Z,8.50
2018-09-29T23:27:02.354Z,8.50
2018-09-29T23:29:31.527Z,8.50
2018-09-29T23:32:01.986Z,8.50
2018-09-29T23:34:31.359Z,8.50
2018-09-29T23:37:00.444Z,8.30
2018-09-29T23:39:29.765Z,8.30
2018-09-29T23:41:59.186Z,8.20
2018-09-29T23:44:29.093Z,8.20
2018-09-29T23:46:58.755Z,8.20
2018-09-29T23:49:29.182Z,8.10
2018-09-29T23:51:59.103Z,8.10
2018-09-29T23:54:28.735Z,8.20
2018-09-29T23:56:58.298Z,8.30
2018-09-29T23:59:27.484Z,8.30
